sensor_id;sensor_type;location;lat;lon;timestamp;pressure;altitude;pressure_sealevel;temperature;humidity
62779;BME280;48821;48.796;2.396;2023-02-18T00:00:29;102740.19;;;14.93;64.68
62779;BME280;48821;48.796;2.396;2023-02-18T00:01:39;102746.34;;;14.94;64.45
62779;BME280;48821;48.796;2.396;2023-02-18T00:02:51;102737.53;;;14.92;64.74
62779;BME280;48821;48.796;2.396;2023-02-18T00:04:02;102741.06;;;14.92;64.50
62779;BME280;48821;48.796;2.396;2023-02-18T00:05:14;102736.66;;;14.93;64.70
62779;BME280;48821;48.796;2.396;2023-02-18T00:06:29;102734.91;;;14.92;64.66
62779;BME280;48821;48.796;2.396;2023-02-18T00:07:41;102727.84;;;14.92;64.75
62779;BME280;48821;48.796;2.396;2023-02-18T00:08:52;102733.13;;;14.92;64.83
62779;BME280;48821;48.796;2.396;2023-02-18T00:10:04;102734.91;;;14.92;64.83
62779;BME280;48821;48.796;2.396;2023-02-18T00:11:18;102728.75;;;14.91;64.60
62779;BME280;48821;48.796;2.396;2023-02-18T00:12:29;102727.88;;;14.91;64.75
62779;BME280;48821;48.796;2.396;2023-02-18T00:13:40;102727.88;;;14.91;64.59
62779;BME280;48821;48.796;2.396;2023-02-18T00:14:51;102734.91;;;14.92;64.54
62779;BME280;48821;48.796;2.396;2023-02-18T00:16:05;102734.94;;;14.90;64.72
62779;BME280;48821;48.796;2.396;2023-02-18T00:17:16;102730.53;;;14.89;64.50
62779;BME280;48821;48.796;2.396;2023-02-18T00:18:27;102730.53;;;14.89;64.82
62779;BME280;48821;48.796;2.396;2023-02-18T00:19:38;102737.63;;;14.89;64.91
62779;BME280;48821;48.796;2.396;2023-02-18T00:20:49;102731.47;;;14.88;64.77
62779;BME280;48821;48.796;2.396;2023-02-18T00:22:00;102730.56;;;14.88;64.35
62779;BME280;48821;48.796;2.396;2023-02-18T00:23:12;102727.06;;;14.87;64.63
62779;BME280;48821;48.796;2.396;2023-02-18T00:24:24;102735.88;;;14.88;64.59
62779;BME280;48821;48.796;2.396;2023-02-18T00:25:36;102732.38;;;14.85;64.62
62779;BME280;48821;48.796;2.396;2023-02-18T00:26:49;102737.69;;;14.85;64.52
62779;BME280;48821;48.796;2.396;2023-02-18T00:28:00;102728.88;;;14.83;64.48
62779;BME280;48821;48.796;2.396;2023-02-18T00:29:11;102734.16;;;14.83;64.53
62779;BME280;48821;48.796;2.396;2023-02-18T00:30:22;102728.88;;;14.83;64.74
62779;BME280;48821;48.796;2.396;2023-02-18T00:31:35;102727.09;;;14.84;64.80
62779;BME280;48821;48.796;2.396;2023-02-18T00:32:46;102729.75;;;14.84;64.73
62779;BME280;48821;48.796;2.396;2023-02-18T00:33:58;102726.19;;;14.85;64.44
62779;BME280;48821;48.796;2.396;2023-02-18T00:35:08;102730.59;;;14.84;64.83
62779;BME280;48821;48.796;2.396;2023-02-18T00:36:21;102726.19;;;14.85;64.64
62779;BME280;48821;48.796;2.396;2023-02-18T00:37:31;102729.75;;;14.85;64.69
62779;BME280;48821;48.796;2.396;2023-02-18T00:38:44;102730.59;;;14.84;64.50
62779;BME280;48821;48.796;2.396;2023-02-18T00:39:58;102735.03;;;14.85;64.60
62779;BME280;48821;48.796;2.396;2023-02-18T00:41:08;102728.81;;;14.85;64.74
62779;BME280;48821;48.796;2.396;2023-02-18T00:42:19;102730.59;;;14.84;64.45
62779;BME280;48821;48.796;2.396;2023-02-18T00:43:30;102738.56;;;14.86;64.54
62779;BME280;48821;48.796;2.396;2023-02-18T00:44:41;102732.38;;;14.85;64.55
62779;BME280;48821;48.796;2.396;2023-02-18T00:45:52;102728.81;;;14.85;64.71
62779;BME280;48821;48.796;2.396;2023-02-18T00:47:04;102736.78;;;14.85;64.69
62779;BME280;48821;48.796;2.396;2023-02-18T00:48:16;102729.75;;;14.85;64.59
62779;BME280;48821;48.796;2.396;2023-02-18T00:49:28;102735.03;;;14.85;64.57
62779;BME280;48821;48.796;2.396;2023-02-18T00:50:39;102722.66;;;14.84;64.62
62779;BME280;48821;48.796;2.396;2023-02-18T00:51:50;102732.38;;;14.85;64.86
62779;BME280;48821;48.796;2.396;2023-02-18T00:53:01;102719.16;;;14.85;64.66
62779;BME280;48821;48.796;2.396;2023-02-18T00:54:12;102719.16;;;14.85;64.56
62779;BME280;48821;48.796;2.396;2023-02-18T00:55:23;102727.09;;;14.85;64.93
62779;BME280;48821;48.796;2.396;2023-02-18T00:56:35;102721.81;;;14.84;64.71
62779;BME280;48821;48.796;2.396;2023-02-18T00:57:45;102717.34;;;14.84;64.82
62779;BME280;48821;48.796;2.396;2023-02-18T00:58:57;102713.00;;;14.83;64.75
62779;BME280;48821;48.796;2.396;2023-02-18T01:00:09;102710.34;;;14.83;64.93
62779;BME280;48821;48.796;2.396;2023-02-18T01:01:23;102716.53;;;14.82;64.52
62779;BME280;48821;48.796;2.396;2023-02-18T01:02:34;102718.28;;;14.82;64.90
62779;BME280;48821;48.796;2.396;2023-02-18T01:03:45;102723.59;;;14.82;64.72
62779;BME280;48821;48.796;2.396;2023-02-18T01:04:57;102720.94;;;14.82;64.69
62779;BME280;48821;48.796;2.396;2023-02-18T01:06:08;102715.66;;;14.82;64.71
62779;BME280;48821;48.796;2.396;2023-02-18T01:07:21;102716.53;;;14.82;64.55
62779;BME280;48821;48.796;2.396;2023-02-18T01:08:33;102716.53;;;14.82;64.85
62779;BME280;48821;48.796;2.396;2023-02-18T01:09:44;102706.84;;;14.81;64.83
62779;BME280;48821;48.796;2.396;2023-02-18T01:10:57;102709.50;;;14.81;64.82
62779;BME280;48821;48.796;2.396;2023-02-18T01:12:07;102703.28;;;14.82;64.83
62779;BME280;48821;48.796;2.396;2023-02-18T01:13:18;102705.94;;;14.82;64.66
62779;BME280;48821;48.796;2.396;2023-02-18T01:14:32;102700.63;;;14.82;65.13
62779;BME280;48821;48.796;2.396;2023-02-18T01:15:42;102701.56;;;14.81;64.75
62779;BME280;48821;48.796;2.396;2023-02-18T01:16:53;102704.22;;;14.81;65.07
62779;BME280;48821;48.796;2.396;2023-02-18T01:18:05;102701.56;;;14.81;64.94
62779;BME280;48821;48.796;2.396;2023-02-18T01:19:17;102708.63;;;14.81;64.87
62779;BME280;48821;48.796;2.396;2023-02-18T01:20:28;102698.03;;;14.81;65.03
62779;BME280;48821;48.796;2.396;2023-02-18T01:21:39;102705.97;;;14.81;65.12
62779;BME280;48821;48.796;2.396;2023-02-18T01:22:50;102705.09;;;14.80;64.89
62779;BME280;48821;48.796;2.396;2023-02-18T01:24:01;102715.69;;;14.80;64.95
62779;BME280;48821;48.796;2.396;2023-02-18T01:25:12;102707.75;;;14.80;64.73
62779;BME280;48821;48.796;2.396;2023-02-18T01:26:26;102711.28;;;14.79;65.09
62779;BME280;48821;48.796;2.396;2023-02-18T01:27:37;102705.13;;;14.79;65.02
62779;BME280;48821;48.796;2.396;2023-02-18T01:28:48;102703.38;;;14.78;64.79
62779;BME280;48821;48.796;2.396;2023-02-18T01:29:59;102706.91;;;14.78;64.92
62779;BME280;48821;48.796;2.396;2023-02-18T01:31:12;102707.78;;;14.77;64.83
62779;BME280;48821;48.796;2.396;2023-02-18T01:32:22;102709.56;;;14.78;64.56
62779;BME280;48821;48.796;2.396;2023-02-18T01:33:34;102707.78;;;14.77;64.77
62779;BME280;48821;48.796;2.396;2023-02-18T01:34:45;102706.06;;;14.76;65.02
62779;BME280;48821;48.796;2.396;2023-02-18T01:35:59;102707.84;;;14.76;64.65
62779;BME280;48821;48.796;2.396;2023-02-18T01:37:09;102705.22;;;14.74;64.92
62779;BME280;48821;48.796;2.396;2023-02-18T01:38:20;102703.44;;;14.74;64.56
62779;BME280;48821;48.796;2.396;2023-02-18T01:39:32;102704.31;;;14.75;64.47
62779;BME280;48821;48.796;2.396;2023-02-18T01:40:48;102705.19;;;14.76;64.67
62779;BME280;48821;48.796;2.396;2023-02-18T01:42:00;102698.13;;;14.74;64.50
62779;BME280;48821;48.796;2.396;2023-02-18T01:43:14;102699.00;;;14.75;64.43
62779;BME280;48821;48.796;2.396;2023-02-18T01:44:27;102693.72;;;14.75;64.52
62779;BME280;48821;48.796;2.396;2023-02-18T01:46:14;102705.22;;;14.74;64.43
62779;BME280;48821;48.796;2.396;2023-02-18T01:47:25;102697.28;;;14.74;64.42
62779;BME280;48821;48.796;2.396;2023-02-18T01:48:56;102699.06;;;14.73;64.26
62779;BME280;48821;48.796;2.396;2023-02-18T01:50:07;102694.66;;;14.72;64.44
62779;BME280;48821;48.796;2.396;2023-02-18T01:51:28;102693.78;;;14.72;64.27
62779;BME280;48821;48.796;2.396;2023-02-18T01:52:39;102684.09;;;14.71;64.11
62779;BME280;48821;48.796;2.396;2023-02-18T01:55:01;102690.28;;;14.71;64.31
62779;BME280;48821;48.796;2.396;2023-02-18T01:56:19;102685.88;;;14.70;63.93
62779;BME280;48821;48.796;2.396;2023-02-18T01:57:36;102679.69;;;14.70;63.98
62779;BME280;48821;48.796;2.396;2023-02-18T01:58:48;102689.41;;;14.69;64.08
62779;BME280;48821;48.796;2.396;2023-02-18T02:00:11;102684.13;;;14.69;64.04
62779;BME280;48821;48.796;2.396;2023-02-18T02:01:23;102680.63;;;14.69;64.08
62779;BME280;48821;48.796;2.396;2023-02-18T02:02:36;102680.63;;;14.67;64.17
62779;BME280;48821;48.796;2.396;2023-02-18T02:03:49;102672.69;;;14.67;63.93
62779;BME280;48821;48.796;2.396;2023-02-18T02:05:00;102676.25;;;14.65;64.04
62779;BME280;48821;48.796;2.396;2023-02-18T02:06:16;102671.84;;;14.65;64.09
62779;BME280;48821;48.796;2.396;2023-02-18T02:07:28;102672.72;;;14.66;64.21
62779;BME280;48821;48.796;2.396;2023-02-18T02:08:39;102673.63;;;14.65;63.92
62779;BME280;48821;48.796;2.396;2023-02-18T02:09:52;102670.97;;;14.65;63.94
62779;BME280;48821;48.796;2.396;2023-02-18T02:14:24;102667.50;;;14.62;64.06
62779;BME280;48821;48.796;2.396;2023-02-18T02:19:10;102662.19;;;14.62;63.72
62779;BME280;48821;48.796;2.396;2023-02-18T02:35:23;102654.47;;;14.51;63.61
62779;BME280;48821;48.796;2.396;2023-02-18T02:36:43;102648.31;;;14.51;63.74
62779;BME280;48821;48.796;2.396;2023-02-18T02:38:13;102650.06;;;14.50;63.94
62779;BME280;48821;48.796;2.396;2023-02-18T02:39:45;102645.66;;;14.51;63.75
62779;BME280;48821;48.796;2.396;2023-02-18T02:41:11;102642.13;;;14.50;63.59
62779;BME280;48821;48.796;2.396;2023-02-18T02:44:23;102641.25;;;14.50;63.68
62779;BME280;48821;48.796;2.396;2023-02-18T02:47:07;102632.44;;;14.49;63.47
62779;BME280;48821;48.796;2.396;2023-02-18T02:48:31;102628.06;;;14.48;63.65
62779;BME280;48821;48.796;2.396;2023-02-18T02:51:17;102632.50;;;14.48;63.49
62779;BME280;48821;48.796;2.396;2023-02-18T02:52:46;102625.47;;;14.47;63.37
62779;BME280;48821;48.796;2.396;2023-02-18T02:54:25;102626.31;;;14.47;62.98
62779;BME280;48821;48.796;2.396;2023-02-18T02:55:36;102628.06;;;14.48;63.48
62779;BME280;48821;48.796;2.396;2023-02-18T02:56:47;102630.69;;;14.50;63.68
62779;BME280;48821;48.796;2.396;2023-02-18T02:57:58;102628.03;;;14.50;63.43
62779;BME280;48821;48.796;2.396;2023-02-18T02:59:17;102626.31;;;14.49;63.47
62779;BME280;48821;48.796;2.396;2023-02-18T03:04:03;102627.16;;;14.49;63.66
62779;BME280;48821;48.796;2.396;2023-02-18T03:10:07;102635.09;;;14.51;63.30
62779;BME280;48821;48.796;2.396;2023-02-18T03:11:21;102627.16;;;14.49;63.46
62779;BME280;48821;48.796;2.396;2023-02-18T03:12:45;102628.94;;;14.49;63.25
62779;BME280;48821;48.796;2.396;2023-02-18T03:14:12;102625.47;;;14.47;63.33
62779;BME280;48821;48.796;2.396;2023-02-18T03:15:53;102624.59;;;14.46;63.25
62779;BME280;48821;48.796;2.396;2023-02-18T03:18:39;102619.31;;;14.46;63.50
62779;BME280;48821;48.796;2.396;2023-02-18T03:20:48;102622.81;;;14.47;63.32
62779;BME280;48821;48.796;2.396;2023-02-18T03:21:44;102626.31;;;14.47;62.91
62779;BME280;48821;48.796;2.396;2023-02-18T03:23:03;102624.56;;;14.48;63.45
62779;BME280;48821;48.796;2.396;2023-02-18T03:24:32;102618.38;;;14.47;63.32
62779;BME280;48821;48.796;2.396;2023-02-18T03:25:44;102621.06;;;14.46;63.30
62779;BME280;48821;48.796;2.396;2023-02-18T03:26:59;102615.78;;;14.46;63.52
62779;BME280;48821;48.796;2.396;2023-02-18T03:28:18;102620.22;;;14.44;63.22
62779;BME280;48821;48.796;2.396;2023-02-18T03:29:32;102620.22;;;14.44;63.31
62779;BME280;48821;48.796;2.396;2023-02-18T03:30:52;102617.59;;;14.44;63.46
62779;BME280;48821;48.796;2.396;2023-02-18T03:32:06;102617.59;;;14.44;63.30
62779;BME280;48821;48.796;2.396;2023-02-18T03:33:35;102607.00;;;14.44;63.31
62779;BME280;48821;48.796;2.396;2023-02-18T03:34:52;102616.66;;;14.45;63.05
62779;BME280;48821;48.796;2.396;2023-02-18T03:36:08;102609.59;;;14.45;63.11
62779;BME280;48821;48.796;2.396;2023-02-18T03:37:19;102621.06;;;14.46;63.24
62779;BME280;48821;48.796;2.396;2023-02-18T03:38:39;102618.41;;;14.46;63.33
62779;BME280;48821;48.796;2.396;2023-02-18T03:39:58;102616.66;;;14.45;63.20
62779;BME280;48821;48.796;2.396;2023-02-18T03:41:11;102610.47;;;14.46;63.52
62779;BME280;48821;48.796;2.396;2023-02-18T03:42:26;102607.84;;;14.46;63.28
62779;BME280;48821;48.796;2.396;2023-02-18T03:43:39;102606.94;;;14.47;63.57
62779;BME280;48821;48.796;2.396;2023-02-18T03:44:52;102608.66;;;14.48;63.19
62779;BME280;48821;48.796;2.396;2023-02-18T03:46:03;102620.19;;;14.47;63.43
62779;BME280;48821;48.796;2.396;2023-02-18T03:47:15;102606.06;;;14.46;63.49
62779;BME280;48821;48.796;2.396;2023-02-18T03:48:25;102609.59;;;14.47;63.06
62779;BME280;48821;48.796;2.396;2023-02-18T03:49:37;102604.31;;;14.47;63.26
62779;BME280;48821;48.796;2.396;2023-02-18T03:50:50;102599.91;;;14.46;63.65
62779;BME280;48821;48.796;2.396;2023-02-18T03:52:02;102602.53;;;14.46;63.44
62779;BME280;48821;48.796;2.396;2023-02-18T03:53:15;102602.53;;;14.46;63.49
62779;BME280;48821;48.796;2.396;2023-02-18T03:54:26;102607.84;;;14.46;63.29
62779;BME280;48821;48.796;2.396;2023-02-18T03:55:37;102603.47;;;14.43;63.38
62779;BME280;48821;48.796;2.396;2023-02-18T03:56:48;102614.91;;;14.45;63.48
62779;BME280;48821;48.796;2.396;2023-02-18T03:58:00;102606.09;;;14.45;62.97
62779;BME280;48821;48.796;2.396;2023-02-18T03:59:11;102606.09;;;14.45;63.28
62779;BME280;48821;48.796;2.396;2023-02-18T04:00:24;102610.53;;;14.43;63.30
62779;BME280;48821;48.796;2.396;2023-02-18T04:01:35;102603.47;;;14.43;63.33
62779;BME280;48821;48.796;2.396;2023-02-18T04:02:46;102608.81;;;14.42;63.31
62779;BME280;48821;48.796;2.396;2023-02-18T04:03:58;102613.19;;;14.43;63.41
62779;BME280;48821;48.796;2.396;2023-02-18T04:05:08;102610.56;;;14.41;63.36
62779;BME280;48821;48.796;2.396;2023-02-18T04:06:20;102615.81;;;14.43;63.25
62779;BME280;48821;48.796;2.396;2023-02-18T04:07:31;102609.66;;;14.42;63.33
62779;BME280;48821;48.796;2.396;2023-02-18T04:08:42;102608.81;;;14.42;63.02
62779;BME280;48821;48.796;2.396;2023-02-18T04:09:53;102606.16;;;14.42;63.05
62779;BME280;48821;48.796;2.396;2023-02-18T04:11:04;102596.47;;;14.40;63.31
62779;BME280;48821;48.796;2.396;2023-02-18T04:12:15;102601.75;;;14.40;63.16
62779;BME280;48821;48.796;2.396;2023-02-18T04:13:26;102598.22;;;14.42;63.24
62779;BME280;48821;48.796;2.396;2023-02-18T04:14:37;102609.69;;;14.40;62.91
62779;BME280;48821;48.796;2.396;2023-02-18T04:15:49;102604.41;;;14.40;63.12
62779;BME280;48821;48.796;2.396;2023-02-18T04:17:01;102609.69;;;14.40;62.91
62779;BME280;48821;48.796;2.396;2023-02-18T04:18:11;102600.03;;;14.39;63.01
62779;BME280;48821;48.796;2.396;2023-02-18T04:19:22;102599.16;;;14.39;62.84
62779;BME280;48821;48.796;2.396;2023-02-18T04:20:33;102607.97;;;14.39;62.81
62779;BME280;48821;48.796;2.396;2023-02-18T04:21:44;102598.28;;;14.38;62.99
62779;BME280;48821;48.796;2.396;2023-02-18T04:22:55;102603.56;;;14.38;62.63
62779;BME280;48821;48.796;2.396;2023-02-18T04:24:06;102603.56;;;14.38;62.82
62779;BME280;48821;48.796;2.396;2023-02-18T04:25:16;102595.63;;;14.38;62.66
62779;BME280;48821;48.796;2.396;2023-02-18T04:26:28;102605.34;;;14.38;62.68
62779;BME280;48821;48.796;2.396;2023-02-18T04:27:38;102605.34;;;14.38;62.35
62779;BME280;48821;48.796;2.396;2023-02-18T04:28:49;102605.34;;;14.38;62.64
62779;BME280;48821;48.796;2.396;2023-02-18T04:30:02;102603.59;;;14.37;62.28
62779;BME280;48821;48.796;2.396;2023-02-18T04:31:13;102601.81;;;14.37;62.51
62779;BME280;48821;48.796;2.396;2023-02-18T04:32:26;102609.75;;;14.37;62.26
62779;BME280;48821;48.796;2.396;2023-02-18T04:33:37;102602.69;;;14.38;62.15
62779;BME280;48821;48.796;2.396;2023-02-18T04:34:48;102612.38;;;14.39;62.12
62779;BME280;48821;48.796;2.396;2023-02-18T04:35:58;102604.47;;;14.37;62.85
62779;BME280;48821;48.796;2.396;2023-02-18T04:37:09;102608.03;;;14.36;61.59
62779;BME280;48821;48.796;2.396;2023-02-18T04:38:20;102605.38;;;14.36;61.80
62779;BME280;48821;48.796;2.396;2023-02-18T04:39:32;102614.19;;;14.35;61.82
62779;BME280;48821;48.796;2.396;2023-02-18T04:40:43;102617.72;;;14.36;61.83
62779;BME280;48821;48.796;2.396;2023-02-18T04:41:54;102605.38;;;14.35;61.56
62779;BME280;48821;48.796;2.396;2023-02-18T04:43:04;102608.97;;;14.32;61.31
62779;BME280;48821;48.796;2.396;2023-02-18T04:44:15;102604.53;;;14.33;61.32
62779;BME280;48821;48.796;2.396;2023-02-18T04:45:27;102604.59;;;14.31;60.95
62779;BME280;48821;48.796;2.396;2023-02-18T04:46:37;102606.41;;;14.29;61.04
62779;BME280;48821;48.796;2.396;2023-02-18T04:47:48;102606.41;;;14.29;61.26
62779;BME280;48821;48.796;2.396;2023-02-18T04:48:59;102594.94;;;14.28;61.10
62779;BME280;48821;48.796;2.396;2023-02-18T04:50:13;102597.63;;;14.27;60.86
62779;BME280;48821;48.796;2.396;2023-02-18T04:51:23;102597.63;;;14.27;60.82
62779;BME280;48821;48.796;2.396;2023-02-18T04:52:35;102596.75;;;14.26;61.02
62779;BME280;48821;48.796;2.396;2023-02-18T04:53:48;102598.50;;;14.26;61.19
62779;BME280;48821;48.796;2.396;2023-02-18T04:55:01;102599.41;;;14.25;60.85
62779;BME280;48821;48.796;2.396;2023-02-18T04:56:12;102606.47;;;14.24;60.87
62779;BME280;48821;48.796;2.396;2023-02-18T04:57:23;102608.25;;;14.24;60.78
62779;BME280;48821;48.796;2.396;2023-02-18T04:58:33;102606.47;;;14.24;60.68
62779;BME280;48821;48.796;2.396;2023-02-18T04:59:44;102608.25;;;14.24;61.08
62779;BME280;48821;48.796;2.396;2023-02-18T05:01:02;102610.00;;;14.23;60.80
62779;BME280;48821;48.796;2.396;2023-02-18T05:02:13;102604.75;;;14.22;60.99
62779;BME280;48821;48.796;2.396;2023-02-18T05:03:26;102610.06;;;14.22;60.27
62779;BME280;48821;48.796;2.396;2023-02-18T05:04:36;102608.28;;;14.21;60.41
62779;BME280;48821;48.796;2.396;2023-02-18T05:05:47;102606.56;;;14.20;60.47
62779;BME280;48821;48.796;2.396;2023-02-18T05:06:59;102605.69;;;14.19;60.49
62779;BME280;48821;48.796;2.396;2023-02-18T05:08:09;102606.59;;;14.18;60.52
62779;BME280;48821;48.796;2.396;2023-02-18T05:09:20;102598.66;;;14.18;60.35
62779;BME280;48821;48.796;2.396;2023-02-18T05:10:32;102604.81;;;14.18;60.40
62779;BME280;48821;48.796;2.396;2023-02-18T05:11:43;102596.88;;;14.18;60.43
62779;BME280;48821;48.796;2.396;2023-02-18T05:12:54;102601.28;;;14.18;60.64
62779;BME280;48821;48.796;2.396;2023-02-18T05:14:06;102602.16;;;14.18;60.52
62779;BME280;48821;48.796;2.396;2023-02-18T05:15:19;102599.53;;;14.18;60.32
62779;BME280;48821;48.796;2.396;2023-02-18T05:16:29;102601.28;;;14.18;59.89
62779;BME280;48821;48.796;2.396;2023-02-18T05:17:40;102605.75;;;14.16;60.36
62779;BME280;48821;48.796;2.396;2023-02-18T05:18:51;102602.22;;;14.15;60.28
62779;BME280;48821;48.796;2.396;2023-02-18T05:20:04;102603.13;;;14.14;60.01
62779;BME280;48821;48.796;2.396;2023-02-18T05:21:16;102607.53;;;14.14;60.51
62779;BME280;48821;48.796;2.396;2023-02-18T05:22:26;102601.41;;;14.12;59.89
62779;BME280;48821;48.796;2.396;2023-02-18T05:23:37;102608.47;;;14.11;60.15
62779;BME280;48821;48.796;2.396;2023-02-18T05:24:49;102603.22;;;14.10;60.19
62779;BME280;48821;48.796;2.396;2023-02-18T05:26:00;102602.34;;;14.09;60.52
62779;BME280;48821;48.796;2.396;2023-02-18T05:27:11;102604.06;;;14.10;60.08
62779;BME280;48821;48.796;2.396;2023-02-18T05:28:22;102606.72;;;14.10;60.41
62779;BME280;48821;48.796;2.396;2023-02-18T05:29:36;102602.31;;;14.11;60.23
62779;BME280;48821;48.796;2.396;2023-02-18T05:30:47;102609.34;;;14.10;60.05
62779;BME280;48821;48.796;2.396;2023-02-18T05:32:01;102612.88;;;14.11;59.86
62779;BME280;48821;48.796;2.396;2023-02-18T05:33:14;102610.25;;;14.11;60.33
62779;BME280;48821;48.796;2.396;2023-02-18T05:34:27;102609.34;;;14.10;60.34
62779;BME280;48821;48.796;2.396;2023-02-18T05:35:38;102613.75;;;14.11;59.54
62779;BME280;48821;48.796;2.396;2023-02-18T05:36:48;102611.16;;;14.10;59.64
62779;BME280;48821;48.796;2.396;2023-02-18T05:38:00;102601.50;;;14.07;59.65
62779;BME280;48821;48.796;2.396;2023-02-18T05:39:11;102613.84;;;14.06;59.81
62779;BME280;48821;48.796;2.396;2023-02-18T05:40:22;102612.09;;;14.05;60.27
62779;BME280;48821;48.796;2.396;2023-02-18T05:41:33;102610.31;;;14.06;59.86
62779;BME280;48821;48.796;2.396;2023-02-18T05:42:43;102612.09;;;14.05;59.88
62779;BME280;48821;48.796;2.396;2023-02-18T05:43:54;102613.88;;;14.05;60.10
62779;BME280;48821;48.796;2.396;2023-02-18T05:45:23;102613.88;;;14.05;59.90
62779;BME280;48821;48.796;2.396;2023-02-18T05:46:35;102613.88;;;14.05;60.21
62779;BME280;48821;48.796;2.396;2023-02-18T05:47:48;102613.84;;;14.06;60.50
62779;BME280;48821;48.796;2.396;2023-02-18T05:49:02;102612.09;;;14.07;59.54
62779;BME280;48821;48.796;2.396;2023-02-18T05:50:12;102605.03;;;14.06;60.22
62779;BME280;48821;48.796;2.396;2023-02-18T05:51:23;102612.09;;;14.07;59.91
62779;BME280;48821;48.796;2.396;2023-02-18T05:52:34;102608.56;;;14.06;59.73
62779;BME280;48821;48.796;2.396;2023-02-18T05:53:45;102608.50;;;14.08;59.88
62779;BME280;48821;48.796;2.396;2023-02-18T05:54:56;102609.44;;;14.07;59.94
62779;BME280;48821;48.796;2.396;2023-02-18T05:56:09;102608.50;;;14.08;59.88
62779;BME280;48821;48.796;2.396;2023-02-18T05:57:22;102612.03;;;14.09;59.92
62779;BME280;48821;48.796;2.396;2023-02-18T05:58:35;102606.75;;;14.09;60.31
62779;BME280;48821;48.796;2.396;2023-02-18T05:59:46;102609.41;;;14.09;59.48
62779;BME280;48821;48.796;2.396;2023-02-18T06:00:57;102605.91;;;14.06;59.39
62779;BME280;48821;48.796;2.396;2023-02-18T06:02:09;102608.56;;;14.06;59.68
62779;BME280;48821;48.796;2.396;2023-02-18T06:03:22;102611.25;;;14.05;59.56
62779;BME280;48821;48.796;2.396;2023-02-18T06:04:32;102602.44;;;14.03;59.35
62779;BME280;48821;48.796;2.396;2023-02-18T06:05:44;102601.59;;;14.01;59.42
62779;BME280;48821;48.796;2.396;2023-02-18T06:07:01;102601.59;;;14.01;59.54
62779;BME280;48821;48.796;2.396;2023-02-18T06:08:11;102605.13;;;14.01;59.56
62779;BME280;48821;48.796;2.396;2023-02-18T06:09:22;102603.34;;;14.00;59.41
62779;BME280;48821;48.796;2.396;2023-02-18T06:10:33;102600.75;;;13.99;59.46
62779;BME280;48821;48.796;2.396;2023-02-18T06:11:45;102593.72;;;13.98;59.39
62779;BME280;48821;48.796;2.396;2023-02-18T06:12:56;102595.50;;;13.97;59.48
62779;BME280;48821;48.796;2.396;2023-02-18T06:14:07;102597.31;;;13.95;59.54
62779;BME280;48821;48.796;2.396;2023-02-18T06:15:19;102604.31;;;13.96;59.77
62779;BME280;48821;48.796;2.396;2023-02-18T06:16:29;102605.25;;;13.95;59.42
62779;BME280;48821;48.796;2.396;2023-02-18T06:17:43;102597.31;;;13.95;59.59
62779;BME280;48821;48.796;2.396;2023-02-18T06:18:54;102602.59;;;13.93;59.38
62779;BME280;48821;48.796;2.396;2023-02-18T06:20:05;102602.59;;;13.93;59.57
62779;BME280;48821;48.796;2.396;2023-02-18T06:21:16;102602.59;;;13.95;59.23
62779;BME280;48821;48.796;2.396;2023-02-18T06:22:27;102613.16;;;13.95;59.39
62779;BME280;48821;48.796;2.396;2023-02-18T06:23:40;102603.44;;;13.95;59.60
62779;BME280;48821;48.796;2.396;2023-02-18T06:24:53;102607.00;;;13.94;59.44
62779;BME280;48821;48.796;2.396;2023-02-18T06:26:05;102607.88;;;13.95;59.52
62779;BME280;48821;48.796;2.396;2023-02-18T06:27:18;102606.09;;;13.95;59.20
62779;BME280;48821;48.796;2.396;2023-02-18T06:28:31;102604.31;;;13.96;59.23
62779;BME280;48821;48.796;2.396;2023-02-18T06:29:45;102604.31;;;13.96;59.20
62779;BME280;48821;48.796;2.396;2023-02-18T06:30:58;102601.69;;;13.96;59.33
62779;BME280;48821;48.796;2.396;2023-02-18T06:32:11;102607.84;;;13.97;59.33
62779;BME280;48821;48.796;2.396;2023-02-18T06:33:24;102610.50;;;13.97;59.15
62779;BME280;48821;48.796;2.396;2023-02-18T06:34:37;102604.31;;;13.96;59.14
62779;BME280;48821;48.796;2.396;2023-02-18T06:35:59;102606.09;;;13.95;59.33
62779;BME280;48821;48.796;2.396;2023-02-18T06:37:10;102607.88;;;13.95;59.51
62779;BME280;48821;48.796;2.396;2023-02-18T06:38:21;102597.31;;;13.95;59.22
62779;BME280;48821;48.796;2.396;2023-02-18T06:39:31;102601.72;;;13.94;59.57
62779;BME280;48821;48.796;2.396;2023-02-18T06:40:45;102598.19;;;13.94;59.25
62779;BME280;48821;48.796;2.396;2023-02-18T06:41:56;102603.44;;;13.95;59.52
62779;BME280;48821;48.796;2.396;2023-02-18T06:43:07;102600.84;;;13.94;59.29
62779;BME280;48821;48.796;2.396;2023-02-18T06:44:18;102605.25;;;13.93;59.18
62779;BME280;48821;48.796;2.396;2023-02-18T06:45:29;102605.25;;;13.93;59.33
62779;BME280;48821;48.796;2.396;2023-02-18T06:46:40;102605.25;;;13.93;59.31
62779;BME280;48821;48.796;2.396;2023-02-18T06:47:51;102605.25;;;13.93;59.43
62779;BME280;48821;48.796;2.396;2023-02-18T06:49:04;102601.72;;;13.93;59.35
62779;BME280;48821;48.796;2.396;2023-02-18T06:50:14;102603.53;;;13.92;58.94
62779;BME280;48821;48.796;2.396;2023-02-18T06:51:25;102596.47;;;13.91;59.07
62779;BME280;48821;48.796;2.396;2023-02-18T06:52:37;102593.88;;;13.90;58.96
62779;BME280;48821;48.796;2.396;2023-02-18T06:53:50;102599.16;;;13.90;58.91
62779;BME280;48821;48.796;2.396;2023-02-18T06:55:04;102593.00;;;13.89;58.51
62779;BME280;48821;48.796;2.396;2023-02-18T06:56:15;102592.16;;;13.87;58.68
62779;BME280;48821;48.796;2.396;2023-02-18T06:57:26;102591.31;;;13.85;58.21
62779;BME280;48821;48.796;2.396;2023-02-18T06:58:38;102593.06;;;13.83;57.95
62779;BME280;48821;48.796;2.396;2023-02-18T06:59:51;102595.75;;;13.81;58.09